Time;durP1;ratioP1;P1;durP2;ratioP2;P2;SDS_P1;SDS_P2;PMS_P1;PMS_P2;Temp;Humidity;BMP_temperature;BMP_pressure;BME280_temperature;BME280_humidity;BME280_pressure;Samples;Min_cycle;Max_cycle;Signal;HPM_P1;HPM_P2
2021/04/09 00:00:17;;;;;;;;;42.50;33.75;;;;;0.22;81.24;100751.16;3611498;39;9263;-52
2021/04/09 00:02:44;;;;;;;;;48.50;33.25;;;;;0.43;81.53;100759.91;3597343;39;9265;-51
2021/04/09 00:05:15;;;;;;;;;37.00;33.50;;;;;0.12;82.06;100761.75;3606457;39;9254;-51
2021/04/09 00:07:42;;;;;;;;;44.50;32.50;;;;;0.09;83.56;100756.47;3605976;39;9234;-52
2021/04/09 00:10:10;;;;;;;;;27.50;24.25;;;;;0.26;83.30;100767.00;3603170;39;9265;-51
2021/04/09 00:12:39;;;;;;;;;37.75;31.75;;;;;0.36;83.20;100764.31;3606547;39;9277;-51
2021/04/09 00:15:10;;;;;;;;;43.50;36.50;;;;;0.16;83.27;100763.50;3606504;39;9265;-51
2021/04/09 00:17:37;;;;;;;;;50.00;42.50;;;;;0.03;84.91;100759.09;3605226;39;9269;-51
2021/04/09 00:20:06;;;;;;;;;53.25;43.00;;;;;-0.14;85.20;100767.03;3602333;39;9253;-50
2021/04/09 00:22:33;;;;;;;;;39.50;39.00;;;;;-0.15;85.65;100760.03;3605966;39;9382;-48
2021/04/09 00:25:00;;;;;;;;;65.75;46.00;;;;;-0.09;85.96;100762.66;3598097;39;9256;-50
2021/04/09 00:27:27;;;;;;;;;64.25;46.00;;;;;-0.54;86.89;100767.91;3595815;39;9441;-52
2021/04/09 00:29:54;;;;;;;;;40.00;34.50;;;;;-1.40;86.91;100772.94;3598346;39;9283;-47
2021/04/09 00:32:21;;;;;;;;;42.25;33.25;;;;;-1.56;87.16;100768.47;3595835;39;9256;-50
2021/04/09 00:34:47;;;;;;;;;50.25;38.50;;;;;-1.32;87.79;100775.59;3603162;39;9838;-49
2021/04/09 00:37:16;;;;;;;;;48.00;36.50;;;;;-1.34;87.60;100772.97;3590922;40;9271;-52
2021/04/09 00:39:42;;;;;;;;;46.00;32.00;;;;;-1.58;88.82;100784.28;3600375;39;9491;-49
2021/04/09 00:42:17;;;;;;;;;53.00;35.50;;;;;-1.50;87.94;100776.41;3600882;39;9452;-50
2021/04/09 00:44:45;;;;;;;;;32.00;26.75;;;;;-1.44;87.41;100781.72;3603238;39;9242;-49
2021/04/09 00:47:12;;;;;;;;;41.00;31.50;;;;;-0.69;84.29;100779.31;3605672;39;9311;-52
2021/04/09 00:49:40;;;;;;;;;43.00;32.75;;;;;-1.11;84.41;100775.72;3600094;39;9253;-50
2021/04/09 00:52:08;;;;;;;;;46.00;36.75;;;;;-1.71;87.69;100779.81;3605673;39;9246;-50
2021/04/09 00:54:36;;;;;;;;;46.25;30.50;;;;;-1.57;87.40;100779.88;3587862;40;9267;-48
2021/04/09 00:57:05;;;;;;;;;30.75;24.75;;;;;-1.86;87.65;100787.59;3593676;39;9265;-49
2021/04/09 00:59:34;;;;;;;;;43.00;30.00;;;;;-1.96;88.35;100791.03;3605245;39;9234;-51
2021/04/09 01:02:02;;;;;;;;;43.00;28.25;;;;;-1.59;88.08;100795.66;3595334;39;9236;-48
2021/04/09 01:04:30;;;;;;;;;37.75;28.50;;;;;-1.41;86.91;100797.53;3587207;40;9310;-47
2021/04/09 01:06:57;;;;;;;;;41.25;31.75;;;;;-1.38;85.77;100788.75;3595941;40;9267;-48
2021/04/09 01:09:24;;;;;;;;;45.75;37.75;;;;;-1.12;85.74;100787.09;3599838;39;9415;-49
2021/04/09 01:11:51;;;;;;;;;64.00;39.00;;;;;-1.72;86.28;100785.94;3599856;39;9233;-52
2021/04/09 01:14:18;;;;;;;;;35.75;35.00;;;;;-1.99;88.40;100792.78;3595431;39;9273;-51
2021/04/09 01:17:12;;;;;;;;;47.75;36.75;;;;;-1.96;88.81;100796.31;3595979;39;9229;-51
2021/04/09 01:19:59;;;;;;;;;44.25;32.50;;;;;-2.02;88.95;100792.75;3600756;39;9438;-48
2021/04/09 01:22:59;;;;;;;;;41.75;29.00;;;;;-2.22;88.30;100792.59;3601171;39;9250;-48
2021/04/09 01:25:53;;;;;;;;;74.75;56.50;;;;;-2.47;89.15;100794.13;3590380;39;9474;-48
2021/04/09 01:28:27;;;;;;;;;60.50;43.25;;;;;-1.91;88.51;100787.56;3606280;39;9860;-49
2021/04/09 01:31:18;;;;;;;;;46.50;33.00;;;;;-1.30;85.76;100787.03;3591485;39;9254;-50
2021/04/09 01:33:55;;;;;;;;;40.50;34.00;;;;;-1.12;84.52;100789.75;3595816;39;9314;-49
2021/04/09 01:36:36;;;;;;;;;47.50;31.25;;;;;-1.04;83.65;100787.13;3586697;39;9268;-50
2021/04/09 01:39:24;;;;;;;;;24.50;20.00;;;;;-1.14;83.83;100786.22;3586553;40;9259;-51
2021/04/09 01:41:54;;;;;;;;;43.00;35.00;;;;;-1.40;85.81;100778.19;3591672;40;9244;-51
2021/04/09 01:44:27;;;;;;;;;44.25;36.00;;;;;-1.49;85.46;100783.44;3586492;40;9473;-50
2021/04/09 01:46:55;;;;;;;;;53.75;37.25;;;;;-1.77;86.57;100788.53;3589542;39;9265;-51
2021/04/09 01:49:26;;;;;;;;;43.75;30.75;;;;;-1.97;87.35;100787.53;3601767;39;9256;-51
2021/04/09 01:51:55;;;;;;;;;58.25;42.75;;;;;-1.75;87.70;100787.66;3595830;39;9257;-51
2021/04/09 01:54:25;;;;;;;;;44.00;36.50;;;;;-1.96;87.82;100784.03;3593900;40;9288;-54
2021/04/09 01:56:54;;;;;;;;;50.00;38.75;;;;;-2.10;88.00;100778.66;3594304;39;9252;-50
2021/04/09 01:59:23;;;;;;;;;48.50;39.00;;;;;-2.05;87.17;100787.47;3601372;39;9432;-52
2021/04/09 02:01:52;;;;;;;;;56.50;41.00;;;;;-2.32;87.36;100782.84;3594410;40;9244;-51
2021/04/09 02:04:21;;;;;;;;;53.00;39.75;;;;;-2.67;89.84;100786.06;3586414;40;9272;-50
2021/04/09 02:06:50;;;;;;;;;44.50;33.50;;;;;-2.46;89.41;100785.38;3589082;39;9255;-50
2021/04/09 02:09:18;;;;;;;;;44.00;30.50;;;;;-2.76;89.70;100787.72;3592751;40;9361;-50
2021/04/09 02:11:45;;;;;;;;;50.00;40.75;;;;;-3.58;89.90;100789.38;3595691;39;9245;-49
2021/04/09 02:14:15;;;;;;;;;46.00;35.75;;;;;-3.67;90.07;100784.00;3597047;39;9233;-51
2021/04/09 02:16:45;;;;;;;;;46.75;33.75;;;;;-2.54;88.69;100779.16;3597937;39;9242;-50
2021/04/09 02:19:13;;;;;;;;;52.00;39.25;;;;;-2.63;85.89;100781.72;3594531;39;9244;-53
2021/04/09 02:21:40;;;;;;;;;35.50;30.50;;;;;-2.92;87.63;100795.44;3605632;39;9450;-50
2021/04/09 02:24:08;;;;;;;;;41.25;26.25;;;;;-2.93;88.78;100788.41;3590551;40;9279;-51
2021/04/09 02:26:39;;;;;;;;;39.25;30.75;;;;;-3.10;87.94;100788.22;3590246;39;9286;-50
2021/04/09 02:29:06;;;;;;;;;42.50;34.25;;;;;-2.51;86.92;100780.94;3598606;39;9245;-49
2021/04/09 02:31:34;;;;;;;;;46.00;40.00;;;;;-2.54;86.26;100787.06;3598052;39;9243;-49
2021/04/09 02:34:00;;;;;;;;;49.25;33.25;;;;;-2.64;86.27;100782.56;3587078;40;9841;-47
2021/04/09 02:36:30;;;;;;;;;61.00;47.50;;;;;-3.27;88.10;100787.13;3597020;40;9288;-48
2021/04/09 02:39:13;;;;;;;;;60.75;45.00;;;;;-3.60;90.46;100793.72;3596655;39;9512;-52
2021/04/09 02:41:48;;;;;;;;;47.00;39.75;;;;;-3.25;90.26;100792.41;3589321;39;9257;-49
2021/04/09 02:44:16;;;;;;;;;49.00;36.75;;;;;-2.99;88.73;100806.72;3605076;39;9469;-48
2021/04/09 02:46:58;;;;;;;;;60.50;45.25;;;;;-3.40;88.11;100807.09;3601816;39;9254;-46
2021/04/09 02:49:43;;;;;;;;;55.00;42.50;;;;;-3.38;89.90;100812.38;3594633;40;9437;-49
2021/04/09 02:52:21;;;;;;;;;41.00;37.25;;;;;-3.31;90.08;100809.84;3591034;39;9258;-49
2021/04/09 02:54:59;;;;;;;;;46.00;36.50;;;;;-2.60;88.98;100800.16;3597547;39;9494;-49
2021/04/09 02:57:28;;;;;;;;;55.25;43.00;;;;;-2.79;88.06;100800.81;3592654;40;9276;-52
2021/04/09 02:59:58;;;;;;;;;50.25;36.25;;;;;-3.15;87.90;100810.94;3592383;39;9270;-51
2021/04/09 03:02:26;;;;;;;;;54.00;43.75;;;;;-2.90;88.94;100804.22;3606822;39;9466;-48
2021/04/09 03:04:54;;;;;;;;;61.25;42.75;;;;;-2.78;88.90;100807.84;3606600;39;9260;-49
2021/04/09 03:07:21;;;;;;;;;55.00;44.50;;;;;-2.41;87.48;100801.19;3606833;39;9725;-49
2021/04/09 03:09:48;;;;;;;;;60.00;44.25;;;;;-2.90;88.48;100804.22;3602193;39;9271;-47
2021/04/09 03:12:17;;;;;;;;;61.25;44.75;;;;;-3.43;88.99;100807.06;3596152;39;9821;-50
2021/04/09 03:14:48;;;;;;;;;63.25;45.00;;;;;-3.77;89.27;100806.59;3587263;40;9268;-50
2021/04/09 03:17:27;;;;;;;;;101.75;72.00;;;;;-4.18;89.39;100805.09;3587707;40;9559;-48
2021/04/09 03:19:54;;;;;;;;;50.00;36.00;;;;;-4.28;89.91;100801.44;3587500;40;9288;-47
2021/04/09 03:22:22;;;;;;;;;57.75;41.25;;;;;-3.90;89.92;100799.38;3596098;39;9260;-48
2021/04/09 03:24:49;;;;;;;;;47.25;36.00;;;;;-3.68;87.20;100799.72;3596362;39;9287;-49
2021/04/09 03:27:16;;;;;;;;;60.25;45.25;;;;;-4.12;87.88;100805.19;3596552;39;9283;-50
2021/04/09 03:29:44;;;;;;;;;77.50;55.00;;;;;-3.77;88.55;100806.59;3600380;39;9281;-51
2021/04/09 03:32:14;;;;;;;;;78.50;51.75;;;;;-3.87;88.97;100809.97;3606684;39;9492;-49
2021/04/09 03:34:41;;;;;;;;;75.25;50.00;;;;;-3.51;88.08;100813.06;3606661;39;9474;-50
2021/04/09 03:37:08;;;;;;;;;80.25;56.00;;;;;-3.58;88.06;100806.84;3602385;39;10080;-51
2021/04/09 03:39:37;;;;;;;;;65.00;48.00;;;;;-3.44;87.43;100820.19;3597417;39;9264;-49
2021/04/09 03:42:05;;;;;;;;;66.50;49.50;;;;;-4.04;89.39;100811.41;3596038;39;9259;-48
2021/04/09 03:44:32;;;;;;;;;66.25;48.25;;;;;-4.05;89.22;100814.91;3596341;40;9272;-51
2021/04/09 03:46:59;;;;;;;;;89.00;59.00;;;;;-4.18;89.80;100812.97;3595956;40;9264;-49
2021/04/09 03:49:26;;;;;;;;;54.25;37.50;;;;;-4.32;89.67;100808.34;3598422;39;9241;-51
2021/04/09 03:51:54;;;;;;;;;55.75;33.75;;;;;-4.08;88.99;100814.84;3605570;39;9253;-47
2021/04/09 03:54:21;;;;;;;;;61.00;45.50;;;;;-4.06;87.80;100824.50;3606442;39;9289;-49
2021/04/09 03:56:48;;;;;;;;;86.00;61.75;;;;;-3.34;84.62;100822.94;3605973;39;9293;-49
2021/04/09 03:59:16;;;;;;;;;46.75;36.25;;;;;-3.01;82.24;100818.97;3606401;39;9234;-50
2021/04/09 04:01:44;;;;;;;;;39.25;26.00;;;;;-4.04;84.17;100816.66;3603065;39;9271;-47
2021/04/09 04:04:11;;;;;;;;;45.25;33.00;;;;;-4.86;87.41;100812.63;3596366;39;9854;-47
2021/04/09 04:06:38;;;;;;;;;32.75;27.75;;;;;-4.43;86.32;100828.25;3596473;40;9280;-47
2021/04/09 04:09:05;;;;;;;;;40.50;32.75;;;;;-4.22;86.18;100827.72;3597040;39;9269;-47
2021/04/09 04:11:32;;;;;;;;;47.25;30.25;;;;;-3.67;84.24;100827.72;3606415;39;9266;-51
2021/04/09 04:13:59;;;;;;;;;36.50;22.00;;;;;-3.28;83.04;100830.00;3597239;39;9254;-47
2021/04/09 04:16:26;;;;;;;;;20.00;12.25;;;;;-4.02;84.04;100830.69;3606047;39;9250;-48
2021/04/09 04:18:53;;;;;;;;;39.75;29.75;;;;;-4.52;86.55;100835.97;3606099;39;9436;-47
2021/04/09 04:21:20;;;;;;;;;37.50;27.25;;;;;-4.42;86.94;100841.41;3605732;39;9266;-49
2021/04/09 04:23:48;;;;;;;;;50.75;38.00;;;;;-4.91;86.98;100837.84;3597161;39;9475;-48
2021/04/09 04:26:15;;;;;;;;;52.50;43.00;;;;;-4.79;86.80;100842.47;3596658;39;9562;-50
2021/04/09 04:28:42;;;;;;;;;75.75;48.50;;;;;-4.38;86.32;100834.47;3605876;39;9297;-50
2021/04/09 04:31:09;;;;;;;;;76.25;52.50;;;;;-4.09;85.74;100840.19;3596423;39;9366;-50
2021/04/09 04:33:36;;;;;;;;;67.50;48.25;;;;;-4.31;85.84;100838.09;3586666;40;9500;-49
2021/04/09 04:36:04;;;;;;;;;49.00;40.50;;;;;-4.18;85.58;100849.66;3595435;39;9240;-52
2021/04/09 04:38:31;;;;;;;;;6.00;0.00;;;;;-3.93;86.23;100851.81;3596333;40;9480;-52
2021/04/09 04:40:59;;;;;;;;;55.75;45.00;;;;;-3.53;84.83;100844.53;3604137;39;9262;-50
2021/04/09 04:43:31;;;;;;;;;48.00;38.00;;;;;-3.51;86.52;100853.31;3597453;39;9258;-49
2021/04/09 04:45:58;;;;;;;;;54.75;42.50;;;;;-2.87;85.27;100856.81;3605806;39;9365;-48
2021/04/09 04:48:25;;;;;;;;;71.75;50.50;;;;;-2.62;84.06;100862.34;3603832;39;9240;-50
2021/04/09 04:50:54;;;;;;;;;67.50;52.25;;;;;-2.32;84.29;100850.34;3595850;40;9268;-49
2021/04/09 04:53:21;;;;;;;;;87.00;64.00;;;;;-0.43;76.58;100849.69;3595532;40;9248;-50
2021/04/09 04:55:48;;;;;;;;;80.25;59.25;;;;;-1.64;79.61;100863.22;3599879;39;9265;-51
2021/04/09 04:58:15;;;;;;;;;74.25;49.75;;;;;-0.13;75.82;100869.09;3604550;39;9253;-52
2021/04/09 05:00:41;;;;;;;;;81.00;59.50;;;;;-0.37;75.74;100865.56;3612926;39;9251;-52
2021/04/09 05:03:08;;;;;;;;;80.25;57.25;;;;;-0.37;74.62;100849.72;3608418;39;9254;-50
2021/04/09 05:05:35;;;;;;;;;82.50;60.00;;;;;-1.27;78.69;100857.28;3605854;39;9277;-47
2021/04/09 05:08:03;;;;;;;;;91.50;65.00;;;;;-0.57;77.22;100857.59;3606064;39;9379;-50
2021/04/09 05:10:29;;;;;;;;;76.25;55.25;;;;;-1.80;79.71;100861.34;3606231;39;9493;-51
2021/04/09 05:12:56;;;;;;;;;75.25;52.00;;;;;-2.41;82.33;100866.06;3600335;39;9286;-50
2021/04/09 05:15:23;;;;;;;;;77.50;54.00;;;;;-2.07;82.20;100873.41;3605526;39;9250;-47
2021/04/09 05:17:50;;;;;;;;;69.25;48.50;;;;;-2.69;82.51;100876.25;3596891;39;9272;-51
2021/04/09 05:20:18;;;;;;;;;46.50;35.50;;;;;-3.19;82.99;100881.78;3605561;39;9254;-48
2021/04/09 05:22:45;;;;;;;;;55.50;42.50;;;;;-3.15;83.82;100880.97;3606063;39;9487;-50
2021/04/09 05:25:12;;;;;;;;;59.50;48.00;;;;;-2.63;83.43;100885.97;3604893;39;9299;-50
2021/04/09 05:27:39;;;;;;;;;68.25;48.00;;;;;-1.33;80.10;100884.50;3588153;39;9254;-47
2021/04/09 05:30:07;;;;;;;;;69.50;49.00;;;;;-0.26;75.82;100887.56;3605835;39;9455;-49
2021/04/09 05:32:34;;;;;;;;;70.00;53.50;;;;;-1.72;79.82;100891.22;3605087;39;9370;-49
2021/04/09 05:35:01;;;;;;;;;72.00;53.00;;;;;-1.35;80.01;100883.59;3596447;39;9272;-50
2021/04/09 05:37:28;;;;;;;;;74.25;55.00;;;;;-0.12;76.84;100882.31;3595938;40;9294;-52
2021/04/09 05:39:55;;;;;;;;;78.00;57.00;;;;;-0.37;75.76;100880.50;3601288;39;9270;-49
2021/04/09 05:42:22;;;;;;;;;69.50;55.75;;;;;0.42;75.95;100879.66;3605124;39;9242;-49
2021/04/09 05:44:48;;;;;;;;;78.00;58.50;;;;;0.92;75.15;100891.03;3597232;39;9449;-49
2021/04/09 05:47:15;;;;;;;;;73.00;52.00;;;;;-0.13;77.83;100883.19;3594747;40;10513;-52
2021/04/09 05:49:42;;;;;;;;;71.00;53.00;;;;;0.78;78.09;100883.13;3595163;39;9240;-48
2021/04/09 05:52:09;;;;;;;;;79.75;61.50;;;;;1.10;74.78;100883.91;3595160;40;9276;-48
2021/04/09 05:54:37;;;;;;;;;71.25;56.00;;;;;1.67;75.07;100883.66;3601789;39;9277;-49
2021/04/09 05:57:05;;;;;;;;;80.25;60.75;;;;;1.59;73.75;100884.59;3602308;39;9267;-51
2021/04/09 05:59:32;;;;;;;;;75.25;53.50;;;;;2.61;72.75;100894.41;3602970;39;9231;-51
2021/04/09 06:01:59;;;;;;;;;77.00;54.00;;;;;2.46;72.05;100885.72;3604123;39;9249;-53
2021/04/09 06:04:26;;;;;;;;;110.00;79.75;;;;;2.04;74.53;100882.53;3599513;39;9755;-48
2021/04/09 06:06:53;;;;;;;;;75.00;57.75;;;;;2.23;73.88;100884.13;3601654;39;9234;-48
2021/04/09 06:09:25;;;;;;;;;66.25;50.25;;;;;3.20;72.43;100883.16;3595704;39;9243;-47
2021/04/09 06:11:51;;;;;;;;;65.75;51.00;;;;;3.67;69.41;100884.31;3597652;39;9263;-47
2021/04/09 06:14:20;;;;;;;;;57.00;46.00;;;;;4.97;66.02;100890.13;3599995;39;9277;-49
2021/04/09 06:16:47;;;;;;;;;68.00;49.50;;;;;5.86;64.52;100887.41;3599465;39;9283;-50
2021/04/09 06:19:14;;;;;;;;;65.50;52.00;;;;;5.55;63.27;100892.53;3596855;39;9651;-48
2021/04/09 06:21:41;;;;;;;;;51.50;41.00;;;;;5.39;64.02;100890.19;3595674;39;10535;-48
2021/04/09 06:24:09;;;;;;;;;46.25;40.50;;;;;5.32;64.58;100888.56;3595455;39;10334;-52
2021/04/09 06:26:37;;;;;;;;;44.25;38.25;;;;;8.03;57.26;100888.63;3594932;40;10355;-51
2021/04/09 06:29:04;;;;;;;;;53.00;43.00;;;;;10.94;51.05;100890.22;3602634;39;10178;-51
2021/04/09 06:31:31;;;;;;;;;41.00;33.33;;;;;10.42;50.24;100892.44;3601089;39;10087;-49
2021/04/09 06:33:58;;;;;;;;;40.33;31.67;;;;;11.31;47.12;100895.78;3598407;39;10801;-51
2021/04/09 06:36:25;;;;;;;;;58.33;43.00;;;;;11.26;47.25;100893.28;3602655;39;9947;-48
2021/04/09 06:38:52;;;;;;;;;50.33;41.33;;;;;12.92;43.92;100899.63;3604254;39;9905;-49
2021/04/09 06:41:20;;;;;;;;;39.75;34.50;;;;;13.77;42.36;100896.03;3594563;39;11120;-52
2021/04/09 06:43:47;;;;;;;;;44.00;36.25;;;;;12.44;43.97;100895.78;3604360;39;14657;-52
2021/04/09 06:46:14;;;;;;;;;45.25;34.00;;;;;13.24;43.35;100899.75;3595130;39;15099;-53
2021/04/09 06:48:43;;;;;;;;;44.50;38.00;;;;;12.79;43.98;100903.91;3604531;39;14214;-55
2021/04/09 06:51:15;;;;;;;;;44.25;36.50;;;;;14.43;41.50;100900.38;3604732;39;14037;-50
2021/04/09 06:53:49;;;;;;;;;63.00;48.67;;;;;9.25;53.79;100898.78;3608139;39;14251;-50
2021/04/09 06:56:18;;;;;;;;;35.00;30.00;;;;;5.26;66.11;100904.66;3604210;39;10105;-49
2021/04/09 06:58:49;;;;;;;;;39.67;30.00;;;;;5.57;67.48;100901.38;3614222;39;10096;-50
2021/04/09 07:01:20;;;;;;;;;34.67;26.33;;;;;5.41;67.08;100901.69;3605576;39;10079;-50
2021/04/09 07:03:49;;;;;;;;;33.33;26.67;;;;;5.55;66.98;100900.50;3597528;39;10279;-51
2021/04/09 07:06:16;;;;;;;;;45.00;30.67;;;;;5.78;66.44;100898.22;3606329;39;10271;-51
2021/04/09 07:08:44;;;;;;;;;40.00;32.67;;;;;5.98;65.84;100889.81;3606477;39;10106;-51
2021/04/09 07:11:11;;;;;;;;;52.50;35.25;;;;;6.28;65.23;100895.31;3606258;39;10091;-47
2021/04/09 07:13:52;;;;;;;;;58.50;43.75;;;;;6.57;64.84;100889.25;3606513;39;10255;-50
2021/04/09 07:16:20;;;;;;;;;65.25;46.75;;;;;6.20;65.44;100895.50;3606718;39;10224;-49
2021/04/09 07:18:53;;;;;;;;;45.33;37.33;;;;;6.37;65.37;100898.66;3606825;39;10254;-52
2021/04/09 07:21:32;;;;;;;;;68.75;48.00;;;;;7.15;62.69;100893.03;3606603;39;10217;-51
2021/04/09 07:24:14;;;;;;;;;33.33;30.00;;;;;13.69;43.86;100897.38;3606465;39;10039;-52
2021/04/09 07:26:44;;;;;;;;;31.50;26.75;;;;;15.18;39.18;100896.88;3606684;39;10654;-49
2021/04/09 07:29:32;;;;;;;;;10.00;10.00;;;;;14.26;40.21;100906.75;3606069;39;14106;-50
2021/04/09 07:32:09;;;;;;;;;23.25;18.50;;;;;7.85;54.04;100894.56;3606567;39;13976;-51
2021/04/09 07:35:02;;;;;;;;;22.00;18.00;;;;;8.20;56.85;100896.09;3606351;39;14178;-52
2021/04/09 07:37:53;;;;;;;;;23.00;18.67;;;;;7.89;55.73;100894.38;3606293;39;10466;-53
2021/04/09 07:40:28;;;;;;;;;31.67;19.67;;;;;7.87;56.34;100892.69;3606688;39;9893;-52
2021/04/09 07:42:56;;;;;;;;;26.33;21.33;;;;;8.54;54.47;100890.53;3606736;39;10472;-48
2021/04/09 07:45:28;;;;;;;;;24.33;19.33;;;;;8.73;54.49;100890.78;3606120;39;10259;-51
2021/04/09 07:48:04;;;;;;;;;16.33;13.33;;;;;8.76;51.78;100889.81;3606573;39;9983;-51
2021/04/09 07:50:45;;;;;;;;;10.33;10.00;;;;;8.75;52.13;100888.94;3605964;39;10166;-52
2021/04/09 07:53:30;;;;;;;;;16.67;11.00;;;;;8.79;50.54;100895.03;3606583;39;10218;-51
2021/04/09 07:56:11;;;;;;;;;11.33;8.00;;;;;8.52;49.22;100891.53;3606302;39;9992;-50
2021/04/09 07:58:43;;;;;;;;;15.00;11.00;;;;;8.52;48.19;100897.75;3606610;39;10020;-51
2021/04/09 08:01:23;;;;;;;;;14.33;11.33;;;;;8.88;48.58;100894.75;3596172;39;10003;-49
2021/04/09 08:03:51;;;;;;;;;19.33;13.00;;;;;9.04;48.59;100888.84;3605359;39;9794;-50
2021/04/09 08:06:24;;;;;;;;;15.67;11.33;;;;;8.74;48.21;100880.94;3605511;39;10144;-47
2021/04/09 08:08:51;;;;;;;;;12.00;11.00;;;;;8.96;48.55;100894.47;3605865;39;10761;-52
2021/04/09 08:11:29;;;;;;;;;16.67;13.00;;;;;9.04;47.61;100888.84;3605990;39;10960;-52
2021/04/09 08:14:03;;;;;;;;;17.00;13.00;;;;;9.39;49.03;100879.50;3605652;39;10153;-53
2021/04/09 08:16:41;;;;;;;;;11.67;11.00;;;;;9.50;45.90;100887.13;3599778;39;10147;-50
2021/04/09 08:19:17;;;;;;;;;12.33;9.33;;;;;9.29;44.78;100881.63;3606065;39;10365;-55
2021/04/09 08:21:51;;;;;;;;;12.67;10.67;;;;;9.63;44.67;100885.72;3599167;39;10378;-51
2021/04/09 08:24:31;;;;;;;;;11.25;10.00;;;;;9.39;44.14;100885.72;3595656;40;10896;-53
2021/04/09 08:27:00;;;;;;;;;9.67;9.33;;;;;9.49;44.63;100885.41;3595677;40;10003;-52
2021/04/09 08:29:30;;;;;;;;;11.33;8.67;;;;;9.81;44.99;100876.97;3586583;40;10522;-52
2021/04/09 08:32:02;;;;;;;;;9.25;9.25;;;;;9.87;43.23;100876.75;3605640;39;10597;-52
2021/04/09 08:34:30;;;;;;;;;11.33;11.33;;;;;9.90;43.55;100886.50;3605608;39;14092;-51
2021/04/09 08:36:59;;;;;;;;;15.25;11.75;;;;;9.93;43.96;100874.75;3606235;39;10790;-51
2021/04/09 08:39:43;;;;;;;;;13.50;9.50;;;;;9.71;42.71;100886.31;3596166;40;14071;-50
2021/04/09 08:42:10;;;;;;;;;12.00;8.50;;;;;10.10;41.69;100883.84;3586163;40;14037;-53
2021/04/09 08:44:37;;;;;;;;;8.00;7.25;;;;;10.13;42.58;100872.13;3595454;40;14100;-49
2021/04/09 08:47:05;;;;;;;;;14.25;11.00;;;;;10.45;42.85;100872.63;3594709;40;14064;-50
2021/04/09 08:49:33;;;;;;;;;15.50;11.75;;;;;10.20;41.68;100868.25;3594432;40;14152;-53
2021/04/09 08:52:05;;;;;;;;;40.00;35.00;;;;;10.54;40.84;100870.44;3594353;40;14192;-53
2021/04/09 08:54:32;;;;;;;;;14.00;13.00;;;;;10.42;40.93;100873.63;3594204;40;10682;-52
2021/04/09 08:57:02;;;;;;;;;6.75;6.25;;;;;10.33;42.29;100864.16;3594109;40;14090;-53
2021/04/09 08:59:38;;;;;;;;;10.25;7.00;;;;;10.51;40.55;100856.28;3583282;39;14510;-54
2021/04/09 09:02:25;;;;;;;;;7.50;7.50;;;;;10.08;39.43;100860.69;3614700;39;14034;-53
2021/04/09 09:05:06;;;;;;;;;7.00;7.00;;;;;10.58;39.79;100860.44;3614803;39;14024;-54
2021/04/09 09:07:55;;;;;;;;;14.00;11.00;;;;;10.20;39.93;100864.72;3614470;39;14207;-51
2021/04/09 09:10:31;;;;;;;;;8.25;8.00;;;;;10.77;39.11;100858.72;3614718;39;14005;-51
2021/04/09 09:13:12;;;;;;;;;9.00;7.75;;;;;10.92;39.33;100849.09;3614651;39;14036;-54
2021/04/09 09:15:41;;;;;;;;;9.75;9.25;;;;;11.47;40.49;100851.09;3614164;39;14005;-52
2021/04/09 09:18:24;;;;;;;;;6.00;6.00;;;;;11.12;38.40;100858.97;3614751;39;14007;-55
2021/04/09 09:21:19;;;;;;;;;11.50;7.25;;;;;10.37;38.58;100853.31;3614412;39;14111;-52
2021/04/09 09:23:57;;;;;;;;;12.00;8.75;;;;;10.89;38.07;100846.56;3613465;39;14079;-54
2021/04/09 09:26:45;;;;;;;;;11.25;9.75;;;;;11.52;38.86;100849.06;3614883;39;14026;-55
2021/04/09 09:29:28;;;;;;;;;9.75;6.50;;;;;11.08;39.72;100845.72;3614410;39;14052;-54
2021/04/09 09:31:59;;;;;;;;;12.50;10.00;;;;;11.28;37.86;100858.28;3614180;39;14117;-50
2021/04/09 09:34:27;;;;;;;;;12.50;9.75;;;;;10.62;37.79;100843.28;3614123;39;14007;-52
2021/04/09 09:37:20;;;;;;;;;8.50;8.00;;;;;10.94;37.68;100832.91;3614306;39;14010;-52
2021/04/09 09:39:54;;;;;;;;;9.50;7.00;;;;;11.79;38.98;100844.19;3614302;39;14019;-51
2021/04/09 09:42:21;;;;;;;;;7.25;7.25;;;;;11.17;36.83;100832.75;3614227;39;14794;-50
2021/04/09 09:44:51;;;;;;;;;8.00;7.50;;;;;11.89;37.38;100830.34;3614019;39;14005;-52
2021/04/09 09:47:44;;;;;;;;;7.00;7.00;;;;;11.99;36.20;100824.44;3614252;39;13991;-50
2021/04/09 09:50:27;;;;;;;;;11.25;7.75;;;;;11.00;36.25;100824.56;3613965;39;14189;-54
2021/04/09 09:53:05;;;;;;;;;7.25;6.25;;;;;11.00;35.82;100821.88;3608710;39;14066;-55
2021/04/09 09:55:40;;;;;;;;;10.00;9.00;;;;;10.95;37.44;100821.22;3598734;39;14724;-55
2021/04/09 09:58:23;;;;;;;;;8.00;8.00;;;;;11.18;38.36;100814.81;3594075;40;14237;-55
2021/04/09 10:00:57;;;;;;;;;10.25;9.75;;;;;11.76;36.19;100808.50;3610385;39;14002;-52
2021/04/09 10:03:33;;;;;;;;;11.75;9.25;;;;;11.45;38.34;100806.41;3614148;39;14028;-55
2021/04/09 10:06:13;;;;;;;;;8.75;7.50;;;;;11.52;37.47;100810.53;3614004;39;14015;-55
2021/04/09 10:08:59;;;;;;;;;13.00;12.00;;;;;11.76;36.36;100805.81;3607199;39;14019;-49
2021/04/09 10:11:26;;;;;;;;;11.25;9.75;;;;;11.58;37.85;100792.28;3603498;39;14048;-54
2021/04/09 10:13:55;;;;;;;;;15.25;9.50;;;;;11.94;37.86;100788.78;3603656;39;14035;-53
2021/04/09 10:16:25;;;;;;;;;13.00;12.00;;;;;11.82;36.84;100790.25;3603591;39;14053;-49
2021/04/09 10:19:04;;;;;;;;;12.75;10.00;;;;;11.74;36.88;100780.78;3604197;39;14058;-55
2021/04/09 10:21:34;;;;;;;;;15.25;12.50;;;;;12.40;37.18;100786.47;3594817;39;14068;-54
2021/04/09 10:24:18;;;;;;;;;9.25;9.00;;;;;12.57;34.54;100782.03;3603985;39;14064;-53
2021/04/09 10:26:55;;;;;;;;;10.00;9.50;;;;;12.10;35.16;100779.94;3613539;39;13983;-55
2021/04/09 10:29:34;;;;;;;;;9.75;9.00;;;;;11.82;34.44;100767.81;3614131;39;14078;-55
2021/04/09 10:32:04;;;;;;;;;11.50;9.00;;;;;12.17;34.75;100767.94;3604817;39;14011;-55
2021/04/09 10:34:33;;;;;;;;;12.75;9.00;;;;;12.56;35.36;100773.09;3604888;39;14258;-50
2021/04/09 10:37:05;;;;;;;;;9.00;9.00;;;;;12.72;34.25;100762.38;3605197;39;14021;-52
2021/04/09 10:39:32;;;;;;;;;12.75;9.75;;;;;12.11;34.53;100742.16;3604652;39;14840;-51
2021/04/09 10:42:03;;;;;;;;;12.00;9.25;;;;;12.21;34.86;100747.97;3603119;39;14013;-52
2021/04/09 10:44:31;;;;;;;;;13.50;11.25;;;;;12.11;34.38;100744.00;3598046;39;14550;-53
2021/04/09 10:47:06;;;;;;;;;25.00;21.50;;;;;12.33;34.89;100736.56;3590056;39;14268;-55
2021/04/09 10:49:44;;;;;;;;;13.50;10.50;;;;;12.53;34.42;100732.81;3587980;39;14108;-52
2021/04/09 10:52:14;;;;;;;;;12.25;10.00;;;;;12.21;34.76;100727.28;3598190;39;14225;-55
2021/04/09 10:54:44;;;;;;;;;11.00;9.00;;;;;12.28;34.40;100727.84;3604377;39;14082;-52
2021/04/09 10:57:19;;;;;;;;;15.25;11.75;;;;;12.25;34.08;100734.28;3601839;39;14024;-53
2021/04/09 10:59:50;;;;;;;;;8.50;7.25;;;;;12.80;33.65;100721.53;3605473;39;14278;-53
2021/04/09 11:02:24;;;;;;;;;11.75;11.00;;;;;12.56;34.15;100721.91;3614695;39;14038;-53
2021/04/09 11:04:57;;;;;;;;;10.50;8.75;;;;;12.54;33.09;100720.25;3597828;39;14034;-55
2021/04/09 11:07:40;;;;;;;;;10.00;10.00;;;;;12.68;33.71;100709.56;3595947;39;14022;-50
2021/04/09 11:10:31;;;;;;;;;11.75;8.00;;;;;12.52;34.90;100705.00;3603952;39;14145;-53
2021/04/09 11:12:58;;;;;;;;;13.25;10.00;;;;;13.02;32.91;100707.75;3585615;39;14018;-54
2021/04/09 11:15:25;;;;;;;;;9.00;7.75;;;;;12.66;32.90;100698.88;3610440;39;14092;-54
2021/04/09 11:17:59;;;;;;;;;10.00;10.00;;;;;12.70;33.54;100689.69;3605276;39;14122;-54
2021/04/09 11:20:33;;;;;;;;;9.50;8.25;;;;;12.55;33.61;100703.97;3604367;39;13973;-52
2021/04/09 11:23:13;;;;;;;;;11.75;10.75;;;;;12.79;33.14;100698.22;3598328;39;13958;-55
2021/04/09 11:25:46;;;;;;;;;9.00;8.00;;;;;12.52;33.70;100683.47;3606817;39;14010;-54
2021/04/09 11:28:30;;;;;;;;;9.75;9.25;;;;;12.89;33.17;100673.38;3600516;39;14013;-52
2021/04/09 11:31:03;;;;;;;;;9.00;8.25;;;;;13.66;32.95;100677.13;3605269;39;14023;-57
2021/04/09 11:33:41;;;;;;;;;9.75;7.75;;;;;13.04;32.42;100668.09;3597854;39;14026;-53
2021/04/09 11:36:19;;;;;;;;;9.00;7.00;;;;;12.83;33.02;100665.63;3615609;39;14023;-53